Houn Maru — JG5489 — position and weather

sailwx.info

Track history (hours):
 
Tides and Currents Weather Stations Pressure Air Temp Water Temp Dewpoint Dewpoint Depression Visibility Wind Speed Wind Dir Waves Ship Positions

Houn Maru

Last reported at 2014-Aug-29 00:09 UTC. Time now 2014-Aug-29 01:33 UTC.
Position N 34°25' E 135°14'.

Length 91 m; draft 5.9 m.

Type: Tanker. MMSI: 431101172.

Date/timePositionNaut miles runAvg speedWind from/ knotsBaromVisibWave heightAir tempDewpointWater temp
2014-Aug-29 00:09N 34°25' E 135°14'2 3.7
2014-Aug-28 23:33N 34°23' E 135°13'0 0.1
2014-Aug-28 22:31N 34°23' E 135°12'0 0.0
2014-Aug-28 21:28N 34°23' E 135°12'0 0.0
2014-Aug-28 20:28N 34°23' E 135°12'0 0.0
2014-Aug-28 19:28N 34°23' E 135°12'0 0.0
2014-Aug-28 18:31N 34°23' E 135°12'0 0.0
2014-Aug-28 17:31N 34°23' E 135°12'8 8.6
2014-Aug-28 16:33N 34°30' E 135°07'10 9.8
2014-Aug-28 15:32N 34°36' E 134°57'2 0.1
2014-Aug-27 08:31N 34°37' E 134°58'9 9.0
2014-Aug-27 07:33N 34°32' E 135°06'10 9.3
2014-Aug-27 06:31N 34°25' E 135°14'0 0.0
2014-Aug-27 01:32N 34°25' E 135°14'2 0.9
2014-Aug-26 23:26N 34°23' E 135°13'0 0.0
2014-Aug-26 22:17N 34°23' E 135°13'6 7.8
2014-Aug-26 21:33N 34°28' E 135°09'1211.5
2014-Aug-26 20:33N 34°37' E 134°60'6 0.1
2014-Aug-25 01:30N 34°35' E 134°53'1212.4
2014-Aug-25 00:33N 34°35' E 135°07'1212.4
2014-Aug-24 23:33N 34°36' E 135°22'  
2014-Aug-22 06:23N 34°35' E 135°27'3 3.6
2014-Aug-22 05:34N 34°36' E 135°24'1211.9
2014-Aug-22 04:33N 34°28' E 135°13'3 2.8
2014-Aug-22 03:33N 34°25' E 135°14'0 0.0
2014-Aug-22 02:31N 34°25' E 135°14'0 0.0
2014-Aug-22 01:31N 34°25' E 135°14'0 0.0
2014-Aug-22 00:25N 34°25' E 135°14'2 2.7
2014-Aug-21 23:33N 34°23' E 135°13'0 0.0
2014-Aug-21 21:32N 34°23' E 135°12'0 0.0
2014-Aug-21 20:32N 34°23' E 135°12'0 0.0
2014-Aug-21 19:32N 34°23' E 135°12'0 0.0
2014-Aug-21 18:32N 34°23' E 135°12'0 0.0
2014-Aug-21 17:14N 34°23' E 135°12'0 0.1
2014-Aug-21 16:32N 34°23' E 135°13'0 0.0
2014-Aug-21 15:20N 34°23' E 135°13'4 4.8
2014-Aug-21 14:33N 34°25' E 135°09'1212.0
2014-Aug-21 13:33N 34°36' E 135°02'3 0.1
2014-Aug-20 06:33N 34°37' E 134°59'1212.4
2014-Aug-20 05:33N 34°28' E 135°09'6 5.5
2014-Aug-20 04:33N 34°25' E 135°14'0 0.0
2014-Aug-20 00:14N 34°25' E 135°14'2 3.1
2014-Aug-19 23:32N 34°23' E 135°13'0 0.1
2014-Aug-19 22:29N 34°23' E 135°13'0 0.0
2014-Aug-19 21:17N 34°23' E 135°13'0 0.0
2014-Aug-19 20:29N 34°23' E 135°13'0 0.0
2014-Aug-19 19:29N 34°23' E 135°13'0 0.0
2014-Aug-19 18:11N 34°23' E 135°13'0 0.0
2014-Aug-19 17:32N 34°23' E 135°13'0 0.2
2014-Aug-19 16:33N 34°24' E 135°12'1110.8
2014-Aug-19 15:34N 34°32' E 135°05'  
Track history (hours):
 
Tides and Currents Weather Stations Pressure Air Temp Water Temp Dewpoint Dewpoint Depression Visibility Wind Speed Wind Dir Waves Ship Positions

Houn Maru

Last reported at 2014-Aug-29 00:09 UTC. Time now 2014-Aug-29 01:33 UTC.
Position N 34°25' E 135°14'.

Length 91 m; draft 5.9 m.

Type: Tanker. MMSI: 431101172.

Date/timePositionNaut miles runAvg speedWind from/ knotsBaromVisibWave heightAir tempDewpointWater temp
2014-Aug-29 00:09N 34°25' E 135°14'2 3.7
2014-Aug-28 23:33N 34°23' E 135°13'0 0.1
2014-Aug-28 22:31N 34°23' E 135°12'0 0.0
2014-Aug-28 21:28N 34°23' E 135°12'0 0.0
2014-Aug-28 20:28N 34°23' E 135°12'0 0.0
2014-Aug-28 19:28N 34°23' E 135°12'0 0.0
2014-Aug-28 18:31N 34°23' E 135°12'0 0.0
2014-Aug-28 17:31N 34°23' E 135°12'8 8.6
2014-Aug-28 16:33N 34°30' E 135°07'10 9.8
2014-Aug-28 15:32N 34°36' E 134°57'2 0.1
2014-Aug-27 08:31N 34°37' E 134°58'9 9.0
2014-Aug-27 07:33N 34°32' E 135°06'10 9.3
2014-Aug-27 06:31N 34°25' E 135°14'0 0.0
2014-Aug-27 01:32N 34°25' E 135°14'2 0.9
2014-Aug-26 23:26N 34°23' E 135°13'0 0.0
2014-Aug-26 22:17N 34°23' E 135°13'6 7.8
2014-Aug-26 21:33N 34°28' E 135°09'1211.5
2014-Aug-26 20:33N 34°37' E 134°60'6 0.1
2014-Aug-25 01:30N 34°35' E 134°53'1212.4
2014-Aug-25 00:33N 34°35' E 135°07'1212.4
2014-Aug-24 23:33N 34°36' E 135°22'  
2014-Aug-22 06:23N 34°35' E 135°27'3 3.6
2014-Aug-22 05:34N 34°36' E 135°24'1211.9
2014-Aug-22 04:33N 34°28' E 135°13'3 2.8
2014-Aug-22 03:33N 34°25' E 135°14'0 0.0
2014-Aug-22 02:31N 34°25' E 135°14'0 0.0
2014-Aug-22 01:31N 34°25' E 135°14'0 0.0
2014-Aug-22 00:25N 34°25' E 135°14'2 2.7
2014-Aug-21 23:33N 34°23' E 135°13'0 0.0
2014-Aug-21 21:32N 34°23' E 135°12'0 0.0
2014-Aug-21 20:32N 34°23' E 135°12'0 0.0
2014-Aug-21 19:32N 34°23' E 135°12'0 0.0
2014-Aug-21 18:32N 34°23' E 135°12'0 0.0
2014-Aug-21 17:14N 34°23' E 135°12'0 0.1
2014-Aug-21 16:32N 34°23' E 135°13'0 0.0
2014-Aug-21 15:20N 34°23' E 135°13'4 4.8
2014-Aug-21 14:33N 34°25' E 135°09'1212.0
2014-Aug-21 13:33N 34°36' E 135°02'3 0.1
2014-Aug-20 06:33N 34°37' E 134°59'1212.4
2014-Aug-20 05:33N 34°28' E 135°09'6 5.5
2014-Aug-20 04:33N 34°25' E 135°14'0 0.0
2014-Aug-20 00:14N 34°25' E 135°14'2 3.1
2014-Aug-19 23:32N 34°23' E 135°13'0 0.1
2014-Aug-19 22:29N 34°23' E 135°13'0 0.0
2014-Aug-19 21:17N 34°23' E 135°13'0 0.0
2014-Aug-19 20:29N 34°23' E 135°13'0 0.0
2014-Aug-19 19:29N 34°23' E 135°13'0 0.0
2014-Aug-19 18:11N 34°23' E 135°13'0 0.0
2014-Aug-19 17:32N 34°23' E 135°13'0 0.2
2014-Aug-19 16:33N 34°24' E 135°12'1110.8
2014-Aug-19 15:34N 34°32' E 135°05'  

Dump ship's entire track history